LTBD

Çıldır Airport

Aydın, Turkey
TAF LTBD 211340Z 2115/2124 VRB02KT CAVOK TEMPO 2115/2118 33012KT
Issued Valid From Valid To
Jul-21 @ 13:40 UTC
(9 hours ago)
Jul-21 @ 15:00 UTC
(8 hours ago)
Jul-22 @ 00:00 UTC
(in 56 minutes)
Jul-21 @ 15:00 to Jul-22 @ 00:00
TAF LTBD 211340Z 2115/2124 VRB02KT CAVOK
Wind Visibility Clouds Conditions
Variable at 2 knots 10,000+ meters
  • No significant clouds
Expired Click to View Jul-21 @ 15:00 to Jul-21 @ 18:00
TEMPO 2115/2118 33012KT
Wind
330° at 12 knots
TAF LTBD 211340Z 2115/2124 VRB02KT CAVOK TEMPO 2115/2118 33012KT
Issued Jul-21 @ 13:40 UTC
(9 hours ago)
Valid From Jul-21 @ 15:00 UTC
(8 hours ago)
Valid To Jul-22 @ 00:00 UTC
(in 56 minutes)
Jul-21 @ 15:00 - Jul-22 @ 00:00
Wind Visibility
Variable at 2 knots 10,000+ meters
Clouds
  • No significant clouds
Conditions
Jul-21 @ 15:00 - Jul-21 @ 18:00
Wind
330° at 12 knots